createdAt,value
2023-03-16T00:00:51.341Z,1.40
2023-03-16T00:03:20.998Z,0.98
2023-03-16T00:05:53.105Z,1.90
2023-03-16T00:08:20.487Z,1.63
2023-03-16T00:10:48.025Z,1.30
2023-03-16T00:13:19.235Z,0.90
2023-03-16T00:16:04.505Z,2.22
2023-03-16T00:18:38.646Z,0.73
2023-03-16T00:21:06.384Z,1.10
2023-03-16T00:23:35.733Z,0.63
2023-03-16T00:26:05.961Z,1.00
2023-03-16T00:28:37.240Z,1.98
2023-03-16T00:31:06.993Z,0.70
2023-03-16T00:33:34.849Z,2.47
2023-03-16T00:36:03.937Z,0.98
2023-03-16T00:38:36.523Z,0.63
2023-03-16T00:41:05.832Z,1.98
2023-03-16T00:43:40.884Z,1.13
2023-03-16T00:46:10.316Z,0.90
2023-03-16T00:48:42.672Z,2.47
2023-03-16T00:51:15.344Z,0.93
2023-03-16T00:53:43.892Z,1.10
2023-03-16T00:56:11.681Z,1.05
2023-03-16T00:58:40.262Z,0.82
2023-03-16T01:01:10.036Z,1.30
2023-03-16T01:03:37.429Z,1.05
2023-03-16T01:06:10.347Z,0.95
2023-03-16T01:08:38.412Z,0.75
2023-03-16T01:11:11.020Z,0.52
2023-03-16T01:13:39.616Z,2.38
2023-03-16T01:16:07.071Z,0.45
2023-03-16T01:18:34.289Z,0.55
2023-03-16T01:21:01.903Z,1.65
2023-03-16T01:23:31.554Z,1.27
2023-03-16T01:25:59.531Z,1.33
2023-03-16T01:28:30.292Z,1.00
2023-03-16T01:31:04.737Z,0.68
2023-03-16T01:33:33.717Z,0.60
2023-03-16T01:36:04.428Z,0.73
2023-03-16T01:38:40.147Z,1.08
2023-03-16T01:41:07.602Z,0.98
2023-03-16T01:43:37.414Z,0.52
2023-03-16T01:46:07.247Z,0.30
2023-03-16T01:48:55.354Z,0.43
2023-03-16T01:51:47.809Z,0.47
2023-03-16T01:54:21.793Z,1.23
2023-03-16T01:56:56.714Z,0.80
2023-03-16T01:59:30.549Z,0.30
2023-03-16T02:01:59.128Z,0.68
2023-03-16T02:04:50.736Z,3.13
2023-03-16T02:07:24.704Z,0.70
2023-03-16T02:09:56.231Z,0.35
2023-03-16T02:12:24.349Z,0.20
2023-03-16T02:14:54.216Z,0.57
2023-03-16T02:17:25.069Z,2.50
2023-03-16T02:20:42.597Z,1.02
2023-03-16T02:23:18.529Z,0.30
2023-03-16T02:25:51.675Z,0.30
2023-03-16T02:28:52.316Z,0.40
2023-03-16T02:31:19.575Z,0.75
2023-03-16T02:33:47.760Z,0.50
2023-03-16T02:36:15.422Z,1.35
2023-03-16T02:38:42.657Z,0.93
2023-03-16T02:41:13.770Z,1.15
2023-03-16T02:43:55.595Z,0.47
2023-03-16T02:46:29.300Z,1.20
2023-03-16T02:49:12.548Z,0.80
2023-03-16T02:51:39.238Z,0.88
2023-03-16T02:54:07.530Z,0.65
2023-03-16T02:56:35.170Z,0.30
2023-03-16T02:59:01.833Z,0.38
2023-03-16T03:01:29.474Z,0.95
2023-03-16T03:03:56.123Z,0.77
2023-03-16T03:06:24.719Z,0.77
2023-03-16T03:08:51.453Z,0.70
2023-03-16T03:11:19.658Z,0.43
2023-03-16T03:13:47.089Z,0.47
2023-03-16T03:16:18.493Z,0.52
2023-03-16T03:18:45.244Z,0.43
2023-03-16T03:21:12.101Z,1.02
2023-03-16T03:23:40.448Z,0.50
2023-03-16T03:26:07.994Z,0.52
2023-03-16T03:28:34.725Z,0.68
2023-03-16T03:31:01.821Z,0.73
2023-03-16T03:33:29.678Z,1.70
2023-03-16T03:35:58.555Z,1.45
2023-03-16T03:38:29.161Z,0.63
2023-03-16T03:41:01.882Z,1.02
2023-03-16T03:43:32.443Z,0.43
2023-03-16T03:46:01.070Z,0.70
2023-03-16T03:48:28.733Z,0.43
2023-03-16T03:50:57.140Z,0.40
2023-03-16T03:53:42.062Z,0.30
2023-03-16T03:56:38.222Z,2.58
2023-03-16T03:59:09.440Z,2.33
2023-03-16T04:01:59.014Z,0.47
2023-03-16T04:04:35.093Z,0.30
2023-03-16T04:07:02.270Z,0.82
2023-03-16T04:09:28.988Z,0.38
2023-03-16T04:11:57.601Z,0.30
2023-03-16T04:14:25.816Z,0.40
2023-03-16T04:16:54.689Z,1.65
2023-03-16T04:19:22.787Z,0.50
2023-03-16T04:21:51.698Z,0.68
2023-03-16T04:24:19.646Z,0.63
2023-03-16T04:26:46.629Z,1.02
2023-03-16T04:29:18.039Z,0.73
2023-03-16T04:31:45.978Z,0.65
2023-03-16T04:34:14.093Z,0.47
2023-03-16T04:36:41.896Z,0.43
2023-03-16T04:39:10.563Z,1.33
2023-03-16T04:41:37.859Z,0.57
2023-03-16T04:44:13.739Z,0.45
2023-03-16T04:46:40.770Z,0.70
2023-03-16T04:49:10.972Z,1.63
2023-03-16T04:51:40.709Z,1.95
2023-03-16T04:54:11.276Z,0.68
2023-03-16T04:56:41.706Z,3.45
2023-03-16T04:59:37.352Z,0.45
2023-03-16T05:02:17.741Z,0.80
2023-03-16T05:04:44.462Z,1.48
2023-03-16T05:07:12.432Z,1.95
2023-03-16T05:09:42.964Z,1.67
2023-03-16T05:12:10.557Z,0.60
2023-03-16T05:14:38.180Z,0.40
2023-03-16T05:17:14.781Z,1.35
2023-03-16T05:19:43.038Z,2.15
2023-03-16T05:22:10.498Z,1.60
2023-03-16T05:24:39.749Z,0.93
2023-03-16T05:27:06.611Z,1.52
2023-03-16T05:29:34.372Z,0.55
2023-03-16T05:32:01.230Z,0.70
2023-03-16T05:34:29.415Z,2.13
2023-03-16T05:36:56.031Z,2.40
2023-03-16T05:39:23.627Z,0.70
2023-03-16T05:41:50.588Z,0.82
2023-03-16T05:44:31.166Z,3.45
2023-03-16T05:47:18.140Z,0.93
2023-03-16T05:49:50.239Z,2.72
2023-03-16T05:52:30.190Z,3.40
2023-03-16T05:54:58.938Z,1.42
2023-03-16T05:57:25.905Z,3.25
2023-03-16T05:59:52.912Z,0.75
2023-03-16T06:02:20.822Z,1.05
2023-03-16T06:04:47.524Z,3.08
2023-03-16T06:07:14.300Z,1.60
2023-03-16T06:09:41.002Z,1.20
2023-03-16T06:12:13.604Z,1.85
2023-03-16T06:14:41.287Z,1.30
2023-03-16T06:17:08.148Z,4.13
2023-03-16T06:19:35.263Z,1.45
2023-03-16T06:22:02.580Z,3.08
2023-03-16T06:24:30.426Z,1.38
2023-03-16T06:26:57.049Z,1.08
2023-03-16T06:29:29.902Z,0.55
2023-03-16T06:31:58.072Z,3.95
2023-03-16T06:34:25.193Z,8.60
2023-03-16T06:36:51.941Z,0.93
2023-03-16T06:39:19.276Z,3.38
2023-03-16T06:41:49.602Z,4.15
2023-03-16T06:44:17.438Z,1.83
2023-03-16T06:46:56.510Z,2.05
2023-03-16T06:49:23.476Z,3.22
2023-03-16T06:51:50.766Z,5.47
2023-03-16T06:54:19.083Z,3.42
2023-03-16T06:56:46.454Z,2.92
2023-03-16T06:59:13.358Z,2.17
2023-03-16T07:01:40.072Z,1.52
2023-03-16T07:04:06.982Z,5.00
2023-03-16T07:06:34.611Z,3.42
2023-03-16T07:09:02.118Z,2.40
2023-03-16T07:11:30.748Z,3.88
2023-03-16T07:13:58.653Z,2.45
2023-03-16T07:16:27.107Z,4.47
2023-03-16T07:18:56.291Z,2.55
2023-03-16T07:21:23.040Z,2.25
2023-03-16T07:23:50.479Z,5.55
2023-03-16T07:26:22.050Z,1.92
2023-03-16T07:28:58.003Z,3.50
2023-03-16T07:31:25.712Z,5.85
2023-03-16T07:33:54.516Z,2.67
2023-03-16T07:36:31.392Z,9.00
2023-03-16T07:39:01.324Z,2.08
2023-03-16T07:41:28.085Z,3.20
2023-03-16T07:44:07.627Z,2.85
2023-03-16T07:46:34.410Z,2.00
2023-03-16T07:49:01.418Z,5.20
2023-03-16T07:51:28.211Z,6.70
2023-03-16T07:53:55.407Z,3.75
2023-03-16T07:56:31.610Z,2.10
2023-03-16T07:59:06.927Z,2.15
2023-03-16T08:01:34.413Z,1.50
2023-03-16T08:04:02.000Z,3.45
2023-03-16T08:06:29.546Z,2.75
2023-03-16T08:08:56.281Z,3.67
2023-03-16T08:11:30.022Z,2.47
2023-03-16T08:14:01.033Z,1.45
2023-03-16T08:16:45.236Z,1.67
2023-03-16T08:19:11.952Z,1.55
2023-03-16T08:21:48.837Z,1.73
2023-03-16T08:24:20.419Z,0.80
2023-03-16T08:26:47.560Z,0.95
2023-03-16T08:29:14.718Z,1.10
2023-03-16T08:31:43.465Z,0.30
2023-03-16T08:34:19.966Z,0.95
2023-03-16T08:36:47.523Z,1.70
2023-03-16T08:39:15.753Z,0.40
2023-03-16T08:41:47.116Z,1.33
2023-03-16T08:44:37.055Z,1.60
2023-03-16T08:47:05.165Z,0.30
2023-03-16T08:49:34.924Z,0.80
2023-03-16T08:52:13.013Z,1.52
2023-03-16T08:54:47.155Z,0.45
2023-03-16T08:57:19.599Z,0.50
2023-03-16T08:59:46.218Z,0.30
2023-03-16T09:02:14.662Z,0.75
2023-03-16T09:04:41.570Z,0.65
2023-03-16T09:07:10.005Z,0.57
2023-03-16T09:09:37.331Z,0.40
2023-03-16T09:12:06.090Z,0.50
2023-03-16T09:14:33.273Z,0.60
2023-03-16T09:17:00.020Z,0.40
2023-03-16T09:19:28.010Z,2.33
2023-03-16T09:21:57.343Z,1.15
2023-03-16T09:24:24.546Z,0.60
2023-03-16T09:26:51.766Z,2.42
2023-03-16T09:29:19.043Z,1.40
2023-03-16T09:31:46.346Z,0.68
2023-03-16T09:34:13.629Z,1.80
2023-03-16T09:36:41.567Z,0.43
2023-03-16T09:39:08.798Z,2.22
2023-03-16T09:41:38.222Z,0.70
2023-03-16T09:44:17.087Z,0.98
2023-03-16T09:46:46.249Z,0.68
2023-03-16T09:49:17.584Z,2.22
2023-03-16T09:51:48.860Z,2.05
2023-03-16T09:54:39.161Z,1.55
2023-03-16T09:57:30.729Z,2.85
2023-03-16T10:00:11.613Z,2.80
2023-03-16T10:02:45.642Z,4.55
2023-03-16T10:05:16.093Z,1.83
2023-03-16T10:08:12.783Z,1.40
2023-03-16T10:10:39.942Z,1.50
2023-03-16T10:13:18.052Z,0.93
2023-03-16T10:15:46.894Z,0.60
2023-03-16T10:18:22.245Z,1.50
2023-03-16T10:20:51.183Z,2.10
2023-03-16T10:23:23.001Z,1.70
2023-03-16T10:25:56.863Z,1.33
2023-03-16T10:28:28.706Z,1.40
2023-03-16T10:30:59.064Z,1.65
2023-03-16T10:33:33.645Z,3.90
2023-03-16T10:36:09.374Z,2.47
2023-03-16T10:38:49.254Z,2.40
2023-03-16T10:41:19.173Z,3.08
2023-03-16T10:43:52.064Z,2.42
2023-03-16T10:46:19.189Z,6.13
2023-03-16T10:48:54.837Z,1.98
2023-03-16T10:51:26.334Z,4.13
2023-03-16T10:53:54.546Z,3.15
2023-03-16T10:56:25.324Z,3.45
2023-03-16T10:58:52.290Z,3.70
2023-03-16T11:01:24.348Z,2.85
2023-03-16T11:03:53.193Z,2.65
2023-03-16T11:06:24.807Z,2.75
2023-03-16T11:08:53.922Z,3.47
2023-03-16T11:11:32.587Z,3.58
2023-03-16T11:14:02.873Z,5.05
2023-03-16T11:16:38.764Z,3.20
2023-03-16T11:19:29.197Z,3.22
2023-03-16T11:22:06.483Z,4.10
2023-03-16T11:24:37.749Z,2.55
2023-03-16T11:27:08.957Z,4.00
2023-03-16T11:29:35.591Z,4.03
2023-03-16T11:32:12.898Z,3.33
2023-03-16T11:34:43.389Z,4.38
2023-03-16T11:37:35.432Z,5.80
2023-03-16T11:40:22.225Z,4.40
2023-03-16T11:43:22.215Z,3.90
2023-03-16T11:46:13.892Z,4.95
2023-03-16T11:49:03.817Z,3.50
2023-03-16T11:51:41.159Z,4.15
2023-03-16T11:54:11.882Z,3.05
2023-03-16T11:57:04.553Z,6.05
2023-03-16T11:59:42.366Z,4.47
2023-03-16T12:02:31.379Z,4.22
2023-03-16T12:05:27.608Z,4.88
2023-03-16T12:10:57.141Z,4.72
2023-03-16T12:13:30.689Z,3.15
2023-03-16T12:16:05.708Z,6.63
2023-03-16T12:18:49.856Z,3.75
2023-03-16T12:21:27.394Z,5.65
2023-03-16T12:23:57.516Z,3.58
2023-03-16T12:26:30.135Z,6.22
2023-03-16T12:28:58.611Z,3.75
2023-03-16T12:31:35.156Z,4.68
2023-03-16T12:34:09.838Z,3.92
2023-03-16T12:36:45.608Z,3.50
2023-03-16T12:39:24.895Z,5.93
2023-03-16T12:42:21.102Z,4.25
2023-03-16T12:45:02.563Z,3.55
2023-03-16T12:47:38.500Z,5.28
2023-03-16T12:50:18.731Z,5.43
2023-03-16T12:52:48.695Z,4.20
2023-03-16T12:55:25.169Z,4.88
2023-03-16T12:58:00.899Z,5.45
2023-03-16T13:00:42.546Z,5.45
2023-03-16T13:03:20.139Z,4.90
2023-03-16T13:05:53.710Z,5.05
2023-03-16T13:08:21.495Z,4.30
2023-03-16T13:11:01.356Z,3.53
2023-03-16T13:13:28.518Z,5.25
2023-03-16T13:16:22.200Z,5.90
2023-03-16T13:18:49.314Z,5.18
2023-03-16T13:21:34.414Z,5.13
2023-03-16T13:24:23.143Z,5.18
2023-03-16T13:26:53.585Z,7.05
2023-03-16T13:29:30.837Z,5.35
2023-03-16T13:32:08.782Z,5.93
2023-03-16T13:34:53.716Z,4.43
2023-03-16T13:37:21.883Z,5.30
2023-03-16T13:39:57.373Z,3.65
2023-03-16T13:44:56.754Z,5.20
2023-03-16T13:47:26.576Z,4.90
2023-03-16T13:49:59.045Z,9.50
2023-03-16T13:52:33.314Z,4.30
2023-03-16T13:55:03.150Z,5.40
2023-03-16T13:57:37.602Z,5.03
2023-03-16T14:00:20.087Z,9.23
2023-03-16T14:02:51.634Z,6.97
2023-03-16T14:05:30.245Z,7.82
2023-03-16T14:07:59.397Z,4.55
2023-03-16T14:10:33.208Z,3.70
2023-03-16T14:13:10.036Z,4.25
2023-03-16T14:15:41.121Z,6.18
2023-03-16T14:18:17.416Z,5.05
2023-03-16T14:20:44.849Z,4.57
2023-03-16T14:23:40.619Z,7.20
2023-03-16T14:26:13.759Z,5.20
2023-03-16T14:28:41.731Z,8.75
2023-03-16T14:31:13.181Z,5.60
2023-03-16T14:33:42.922Z,4.38
2023-03-16T14:36:17.666Z,6.05
2023-03-16T14:38:48.308Z,4.40
2023-03-16T14:41:20.423Z,4.55
2023-03-16T14:43:54.364Z,5.30
2023-03-16T14:46:29.434Z,5.93
2023-03-16T14:49:06.975Z,3.97
2023-03-16T14:51:35.892Z,5.97
2023-03-16T14:54:02.830Z,6.30
2023-03-16T14:56:35.440Z,6.30
2023-03-16T14:59:02.225Z,6.63
2023-03-16T15:01:28.972Z,4.65
2023-03-16T15:03:55.895Z,5.63
2023-03-16T15:06:22.916Z,4.78
2023-03-16T15:08:50.861Z,4.85
2023-03-16T15:11:21.530Z,3.85
2023-03-16T15:13:48.740Z,3.95
2023-03-16T15:16:15.499Z,5.22
2023-03-16T15:18:43.089Z,7.30
2023-03-16T15:21:15.658Z,3.08
2023-03-16T15:23:44.001Z,5.80
2023-03-16T15:26:13.045Z,6.78
2023-03-16T15:28:40.149Z,4.97
2023-03-16T15:31:07.075Z,5.38
2023-03-16T15:33:33.966Z,3.78
2023-03-16T15:36:09.659Z,4.22
2023-03-16T15:38:40.803Z,6.97
2023-03-16T15:41:11.690Z,6.18
2023-03-16T15:43:38.561Z,5.43
2023-03-16T15:46:06.301Z,4.50
2023-03-16T15:48:33.568Z,6.40
2023-03-16T15:51:07.630Z,6.32
2023-03-16T15:53:43.615Z,3.92
2023-03-16T15:56:13.914Z,6.40
2023-03-16T15:58:43.417Z,13.43
2023-03-16T16:01:21.364Z,5.05
2023-03-16T16:03:48.404Z,5.43
2023-03-16T16:06:16.504Z,4.72
2023-03-16T16:08:43.382Z,5.55
2023-03-16T16:11:19.322Z,5.30
2023-03-16T16:13:46.885Z,3.50
2023-03-16T16:16:17.819Z,4.90
2023-03-16T16:18:46.722Z,8.00
2023-03-16T16:21:19.152Z,3.13
2023-03-16T16:23:46.626Z,4.50
2023-03-16T16:26:22.407Z,4.45
2023-03-16T16:28:49.373Z,4.90
2023-03-16T16:31:16.554Z,6.65
2023-03-16T16:33:43.326Z,5.90
2023-03-16T16:36:20.328Z,4.82
2023-03-16T16:38:48.604Z,5.97
2023-03-16T16:41:26.818Z,4.38
2023-03-16T16:43:54.224Z,5.40
2023-03-16T16:46:24.334Z,5.45
2023-03-16T16:48:54.465Z,8.45
2023-03-16T16:51:27.735Z,4.97
2023-03-16T16:53:57.508Z,3.58
2023-03-16T16:56:33.582Z,5.60
2023-03-16T16:59:11.213Z,6.60
2023-03-16T17:01:39.002Z,3.90
2023-03-16T17:04:13.580Z,4.93
2023-03-16T17:06:40.309Z,5.50
2023-03-16T17:09:08.789Z,8.15
2023-03-16T17:11:37.296Z,5.32
2023-03-16T17:14:06.368Z,7.07
2023-03-16T17:16:36.730Z,10.68
2023-03-16T17:19:04.192Z,4.53
2023-03-16T17:21:31.406Z,5.85
2023-03-16T17:24:00.229Z,4.20
2023-03-16T17:26:34.471Z,5.93
2023-03-16T17:29:03.988Z,8.65
2023-03-16T17:31:39.481Z,8.32
2023-03-16T17:36:44.159Z,7.40
2023-03-16T17:39:32.522Z,5.47
2023-03-16T17:42:01.986Z,5.53
2023-03-16T17:44:35.559Z,13.68
2023-03-16T17:47:02.475Z,6.07
2023-03-16T17:49:30.757Z,6.07
2023-03-16T17:51:57.723Z,8.18
2023-03-16T17:54:24.388Z,6.10
2023-03-16T17:56:53.878Z,6.82
2023-03-16T17:59:22.355Z,4.85
2023-03-16T18:01:49.262Z,5.53
2023-03-16T18:04:25.837Z,5.22
2023-03-16T18:06:52.967Z,4.57
2023-03-16T18:09:20.963Z,4.68
2023-03-16T18:11:51.149Z,6.28
2023-03-16T18:14:39.769Z,4.00
2023-03-16T18:17:36.361Z,5.70
2023-03-16T18:20:05.574Z,8.07
2023-03-16T18:22:32.268Z,4.22
2023-03-16T18:25:01.098Z,4.60
2023-03-16T18:27:27.779Z,5.07
2023-03-16T18:29:54.737Z,4.00
2023-03-16T18:32:27.211Z,5.30
2023-03-16T18:34:54.175Z,5.55
2023-03-16T18:37:23.681Z,3.80
2023-03-16T18:39:51.962Z,7.75
2023-03-16T18:42:24.279Z,4.38
2023-03-16T18:44:51.619Z,5.32
2023-03-16T18:47:22.059Z,4.18
2023-03-16T18:49:51.477Z,4.72
2023-03-16T18:52:22.124Z,6.35
2023-03-16T18:54:50.018Z,7.03
2023-03-16T18:57:21.447Z,3.63
2023-03-16T18:59:49.061Z,4.50
2023-03-16T19:02:37.341Z,6.35
2023-03-16T19:05:07.842Z,9.48
2023-03-16T19:07:37.721Z,6.13
2023-03-16T19:10:23.066Z,6.28
2023-03-16T19:12:50.783Z,6.93
2023-03-16T19:15:22.355Z,10.02
2023-03-16T19:17:49.934Z,7.32
2023-03-16T19:20:19.510Z,4.50
2023-03-16T19:22:49.009Z,9.32
2023-03-16T19:25:24.135Z,6.18
2023-03-16T19:27:51.274Z,8.48
2023-03-16T19:30:37.056Z,8.15
2023-03-16T19:33:10.658Z,7.90
2023-03-16T19:35:51.121Z,7.88
2023-03-16T19:38:19.304Z,6.32
2023-03-16T19:40:49.174Z,28.33
2023-03-16T19:43:18.476Z,5.90
2023-03-16T19:45:46.816Z,4.93
2023-03-16T19:48:20.212Z,6.43
2023-03-16T19:50:49.246Z,6.53
2023-03-16T19:53:22.441Z,5.82
2023-03-16T19:55:51.867Z,5.63
2023-03-16T19:58:21.029Z,6.00
2023-03-16T20:00:47.981Z,5.22
2023-03-16T20:03:14.797Z,6.55
2023-03-16T20:05:41.594Z,6.68
2023-03-16T20:08:27.328Z,4.97
2023-03-16T20:11:02.116Z,9.98
2023-03-16T20:13:31.833Z,8.67
2023-03-16T20:15:59.322Z,6.03
2023-03-16T20:18:28.643Z,4.57
2023-03-16T20:20:55.848Z,8.18
2023-03-16T20:23:28.489Z,8.77
2023-03-16T20:26:01.988Z,7.88
2023-03-16T20:28:36.132Z,6.88
2023-03-16T20:31:05.135Z,5.45
2023-03-16T20:33:32.110Z,7.03
2023-03-16T20:35:58.813Z,6.65
2023-03-16T20:38:25.674Z,7.18
2023-03-16T20:40:54.378Z,7.00
2023-03-16T20:43:26.459Z,7.03
2023-03-16T20:45:55.839Z,6.20
2023-03-16T20:48:25.452Z,6.50
2023-03-16T20:50:54.026Z,6.00
2023-03-16T20:53:21.561Z,5.88
2023-03-16T20:55:52.651Z,9.90
2023-03-16T20:58:25.613Z,10.15
2023-03-16T21:00:57.647Z,9.45
2023-03-16T21:03:27.992Z,7.32
2023-03-16T21:05:59.589Z,10.35
2023-03-16T21:08:27.168Z,9.23
2023-03-16T21:10:56.296Z,8.25
2023-03-16T21:13:32.349Z,7.68
2023-03-16T21:16:01.893Z,7.35
2023-03-16T21:18:30.453Z,8.20
2023-03-16T21:20:58.284Z,12.40
2023-03-16T21:23:24.933Z,7.43
2023-03-16T21:25:55.761Z,7.47
2023-03-16T21:28:25.562Z,8.15
2023-03-16T21:30:54.929Z,7.00
2023-03-16T21:33:35.190Z,9.68
2023-03-16T21:36:04.262Z,8.82
2023-03-16T21:38:32.017Z,7.85
2023-03-16T21:40:59.242Z,7.80
2023-03-16T21:43:26.733Z,9.48
2023-03-16T21:45:55.164Z,10.70
2023-03-16T21:48:25.409Z,8.80
2023-03-16T21:50:53.816Z,9.32
2023-03-16T21:53:23.450Z,9.70
2023-03-16T21:55:52.085Z,9.68
2023-03-16T21:58:19.375Z,12.05
2023-03-16T22:00:47.377Z,7.80
2023-03-16T22:03:23.067Z,9.70
2023-03-16T22:05:51.090Z,10.93
2023-03-16T22:08:21.467Z,8.95
2023-03-16T22:10:48.456Z,9.43
2023-03-16T22:13:15.286Z,12.65
2023-03-16T22:15:43.631Z,10.25
2023-03-16T22:18:28.213Z,8.85
2023-03-16T22:21:00.636Z,10.50
2023-03-16T22:23:30.870Z,9.82
2023-03-16T22:25:58.347Z,10.95
2023-03-16T22:28:26.455Z,18.63
2023-03-16T22:30:54.598Z,10.10
2023-03-16T22:33:28.174Z,13.48
2023-03-16T22:35:58.683Z,9.45
2023-03-16T22:38:25.463Z,10.80
2023-03-16T22:40:52.272Z,10.35
2023-03-16T22:43:27.399Z,13.77
2023-03-16T22:45:56.514Z,12.68
2023-03-16T22:48:27.916Z,11.10
2023-03-16T22:50:58.227Z,15.57
2023-03-16T22:53:41.386Z,11.30
2023-03-16T22:56:10.346Z,11.40
2023-03-16T22:58:41.679Z,11.15
2023-03-16T23:01:17.167Z,9.60
2023-03-16T23:03:45.378Z,11.05
2023-03-16T23:06:18.905Z,9.68
2023-03-16T23:08:45.888Z,10.05
2023-03-16T23:11:32.211Z,11.90
2023-03-16T23:13:59.832Z,9.70
2023-03-16T23:16:31.300Z,8.80
2023-03-16T23:18:58.011Z,8.63
2023-03-16T23:21:26.370Z,9.88
2023-03-16T23:24:03.091Z,8.95
2023-03-16T23:26:30.848Z,10.30
2023-03-16T23:28:57.552Z,12.38
2023-03-16T23:31:27.183Z,12.63
2023-03-16T23:33:53.943Z,11.25
2023-03-16T23:36:23.038Z,13.70
2023-03-16T23:38:50.615Z,10.90
2023-03-16T23:41:20.560Z,10.20
2023-03-16T23:43:48.680Z,10.70
2023-03-16T23:46:19.612Z,8.30
2023-03-16T23:48:48.761Z,8.45
2023-03-16T23:51:25.549Z,13.40
2023-03-16T23:53:53.172Z,10.75
2023-03-16T23:56:20.136Z,12.35
2023-03-16T23:58:46.859Z,8.50
